Time;durP1;ratioP1;P1;durP2;ratioP2;P2;SDS_P1;SDS_P2;PMS_P1;PMS_P2;Temp;Humidity;BMP_temperature;BMP_pressure;BME280_temperature;BME280_humidity;BME280_pressure;Samples;Min_cycle;Max_cycle;Signal;HPM_P1;HPM_P2
2023/04/21 00:00:17;;;;;;;63.30;26.48;;;;;;;7.50;65.94;98650.31;5094529;28;20035;-76
2023/04/21 00:02:45;;;;;;;58.58;25.77;;;;;;;7.48;66.03;98649.75;5093095;28;20036;-75
2023/04/21 00:05:12;;;;;;;47.88;22.80;;;;;;;7.48;66.16;98657.94;5092717;28;20024;-75
2023/04/21 00:07:39;;;;;;;51.63;23.13;;;;;;;7.46;66.64;98658.22;5093024;28;20034;-75
2023/04/21 00:10:09;;;;;;;49.08;23.05;;;;;;;7.44;66.21;98655.75;5093233;28;20016;-75
2023/04/21 00:12:34;;;;;;;;;;;;;;;7.42;66.34;98649.75;5090884;28;20028;-75
2023/04/21 00:14:59;;;;;;;43.28;21.52;;;;;;;7.40;66.28;98657.38;5092430;28;19923;-75
2023/04/21 00:17:25;;;;;;;41.35;21.33;;;;;;;7.37;66.34;98657.94;5092838;28;20030;-75
2023/04/21 00:19:50;;;;;;;39.05;20.15;;;;;;;7.33;66.25;98659.56;5092822;28;20026;-75
2023/04/21 00:22:17;;;;;;;35.10;18.92;;;;;;;7.31;66.42;98659.00;5092632;28;20103;-75
2023/04/21 00:24:43;;;;;;;37.42;21.10;;;;;;;7.28;66.68;98656.81;5092808;28;20024;-74
2023/04/21 00:27:10;;;;;;;39.17;20.85;;;;;;;7.26;66.62;98659.81;5093164;28;20073;-74
2023/04/21 00:29:35;;;;;;;36.38;20.30;;;;;;;7.24;66.95;98653.81;5093002;28;20036;-75
2023/04/21 00:32:02;;;;;;;41.38;22.65;;;;;;;7.23;66.56;98654.06;5093862;28;20111;-77
2023/04/21 00:34:28;;;;;;;43.03;21.75;;;;;;;7.20;66.73;98666.34;5093930;28;20028;-76
2023/04/21 00:36:53;;;;;;;38.70;20.20;;;;;;;7.18;66.35;98654.06;5094093;28;20028;-75
2023/04/21 00:39:19;;;;;;;34.65;20.35;;;;;;;7.15;66.73;98649.97;5093868;28;20048;-76
2023/04/21 00:41:44;;;;;;;40.95;21.08;;;;;;;7.14;66.84;98657.31;5092736;28;20052;-75
2023/04/21 00:44:10;;;;;;;41.53;20.80;;;;;;;7.13;66.63;98652.16;5093774;28;20036;-75
2023/04/21 00:46:35;;;;;;;40.30;21.05;;;;;;;7.08;66.99;98639.31;5093887;28;20020;-75
2023/04/21 00:49:05;;;;;;;47.13;21.83;;;;;;;7.07;66.97;98645.03;5093713;28;20068;-76
2023/04/21 00:51:33;;;;;;;42.92;21.17;;;;;;;7.05;67.28;98645.31;5092358;28;20518;-75
2023/04/21 00:54:00;;;;;;;38.53;21.45;;;;;;;7.05;67.09;98647.19;5092607;28;20024;-75
2023/04/21 00:56:29;;;;;;;39.13;21.25;;;;;;;7.04;67.18;98642.84;5092832;28;20103;-75
2023/04/21 00:58:56;;;;;;;41.50;20.95;;;;;;;7.01;66.91;98641.47;5093525;28;20031;-75
2023/04/21 01:01:22;;;;;;;38.75;21.48;;;;;;;6.95;67.04;98648.81;5093414;28;20035;-75
2023/04/21 01:03:47;;;;;;;37.13;21.30;;;;;;;6.95;66.84;98648.81;5092324;28;20032;-75
2023/04/21 01:06:13;;;;;;;42.15;22.30;;;;;;;6.93;67.12;98644.72;5093505;28;20421;-75
2023/04/21 01:08:38;;;;;;;39.22;22.33;;;;;;;6.89;66.84;98644.44;5093516;28;20027;-76
2023/04/21 01:11:11;;;;;;;37.42;20.90;;;;;;;6.85;67.52;98640.63;5093348;28;20661;-75
2023/04/21 01:13:38;;;;;;;41.83;22.42;;;;;;;6.81;67.22;98639.50;5093424;28;20505;-75
2023/04/21 01:16:04;;;;;;;35.00;20.95;;;;;;;6.78;67.56;98634.59;5093304;28;20020;-76
2023/04/21 01:18:30;;;;;;;38.45;21.60;;;;;;;6.75;67.44;98641.38;5093092;28;20440;-75
2023/04/21 01:20:57;;;;;;;42.85;21.80;;;;;;;6.74;67.42;98639.72;5093007;28;20016;-75
2023/04/21 01:23:22;;;;;;;36.85;19.98;;;;;;;6.73;67.40;98634.56;5092806;28;20036;-75
2023/04/21 01:25:49;;;;;;;40.50;21.48;;;;;;;6.70;67.82;98634.00;5088761;28;20024;-75
2023/04/21 01:28:20;;;;;;;39.35;21.63;;;;;;;6.69;67.47;98639.75;5090327;28;20035;-76
2023/04/21 01:30:46;;;;;;;36.95;21.05;;;;;;;6.66;67.73;98638.34;5092686;28;20150;-76
2023/04/21 01:33:11;;;;;;;36.85;20.67;;;;;;;6.66;67.61;98638.34;5092497;28;20472;-76
2023/04/21 01:35:37;;;;;;;38.25;20.52;;;;;;;6.66;67.43;98637.53;5074488;28;20036;-75
2023/04/21 01:38:02;;;;;;;36.83;20.80;;;;;;;6.63;67.67;98640.78;5092889;28;20031;-75
2023/04/21 01:40:27;;;;;;;37.08;21.40;;;;;;;6.58;67.78;98648.94;5092532;28;20494;-75
2023/04/21 01:42:53;;;;;;;44.35;23.50;;;;;;;6.52;67.61;98646.19;5091112;28;20035;-75
2023/04/21 01:45:18;;;;;;;45.03;23.77;;;;;;;6.48;67.72;98638.81;5092781;28;20032;-75
2023/04/21 01:47:44;;;;;;;43.35;23.52;;;;;;;6.44;67.32;98637.72;5092544;28;20420;-75
2023/04/21 01:50:09;;;;;;;41.05;22.45;;;;;;;6.38;67.46;98645.84;5092368;28;20040;-75
2023/04/21 01:52:35;;;;;;;39.30;22.42;;;;;;;6.34;67.76;98643.91;5092123;28;20055;-75
2023/04/21 01:55:01;;;;;;;41.50;22.92;;;;;;;6.29;67.63;98635.72;5092334;28;20055;-75
2023/04/21 01:57:26;;;;;;;41.97;23.20;;;;;;;6.28;67.72;98636.81;5092347;28;20024;-75
2023/04/21 01:59:52;;;;;;;46.00;24.67;;;;;;;6.28;68.00;98636.81;5092686;28;20124;-76
2023/04/21 02:02:17;;;;;;;42.97;24.75;;;;;;;6.28;67.92;98643.06;5092497;28;20412;-76
2023/04/21 02:04:42;;;;;;;43.88;24.48;;;;;;;6.23;68.18;98645.75;5092229;28;20035;-75
2023/04/21 02:07:08;;;;;;;44.30;23.30;;;;;;;6.24;67.99;98641.94;5092688;28;20020;-75
2023/04/21 02:09:33;;;;;;;47.25;25.90;;;;;;;6.20;68.06;98649.00;5092750;28;20031;-75
2023/04/21 02:11:59;;;;;;;42.25;23.92;;;;;;;6.17;68.36;98653.06;5093134;28;20062;-76
2023/04/21 02:14:25;;;;;;;43.08;23.73;;;;;;;6.15;68.20;98647.06;5106332;28;20028;-75
2023/04/21 02:16:50;;;;;;;42.92;23.67;;;;;;;6.13;67.83;98643.78;5108064;28;20077;-76
2023/04/21 02:19:15;;;;;;;43.20;22.25;;;;;;;6.12;67.90;98639.44;5105322;28;20011;-76
2023/04/21 02:21:41;;;;;;;39.63;23.33;;;;;;;6.14;68.14;98648.16;5106066;28;20035;-75
2023/04/21 02:24:06;;;;;;;43.30;22.95;;;;;;;6.14;68.04;98639.97;5105885;28;20063;-75
2023/04/21 02:26:32;;;;;;;41.95;23.83;;;;;;;6.15;68.08;98638.06;5099394;28;20024;-76
2023/04/21 02:28:57;;;;;;;38.50;22.52;;;;;;;6.13;68.48;98627.44;5092004;28;20030;-75
2023/04/21 02:31:22;;;;;;;44.20;24.40;;;;;;;6.10;68.49;98634.25;5092106;28;20043;-75
2023/04/21 02:33:48;;;;;;;39.95;22.83;;;;;;;6.07;68.53;98629.34;5092872;28;20055;-75
2023/04/21 02:36:13;;;;;;;44.00;22.60;;;;;;;6.05;68.43;98633.38;5092904;28;20162;-75
2023/04/21 02:38:39;;;;;;;40.17;23.65;;;;;;;6.01;68.37;98637.72;5091971;28;20101;-75
2023/04/21 02:41:04;;;;;;;37.08;22.60;;;;;;;5.99;69.02;98628.94;5091792;28;20493;-75
2023/04/21 02:43:30;;;;;;;42.85;24.40;;;;;;;5.98;68.87;98625.41;5091736;28;20481;-74
2023/04/21 02:45:55;;;;;;;38.95;22.98;;;;;;;6.02;68.94;98637.47;5090447;28;20038;-75
2023/04/21 02:48:24;;;;;;;41.13;23.83;;;;;;;6.04;69.07;98642.63;5092249;28;20151;-73
2023/04/21 02:50:51;;;;;;;38.70;23.73;;;;;;;6.04;68.89;98638.03;5090529;28;20581;-74
2023/04/21 02:53:18;;;;;;;40.55;23.88;;;;;;;6.02;69.09;98636.63;5091891;28;20012;-74
2023/04/21 02:55:43;;;;;;;40.70;23.80;;;;;;;5.99;68.69;98648.84;5091810;28;20020;-75
2023/04/21 02:58:09;;;;;;;40.88;23.20;;;;;;;5.97;69.06;98645.56;5091756;28;20070;-75
2023/04/21 03:00:34;;;;;;;44.67;23.15;;;;;;;5.95;68.92;98643.09;5091552;28;20026;-74
2023/04/21 03:03:00;;;;;;;47.97;25.75;;;;;;;5.96;68.75;98642.00;5090242;28;20496;-73
2023/04/21 03:05:25;;;;;;;47.55;25.38;;;;;;;5.98;69.16;98636.31;5093610;28;20024;-75
2023/04/21 03:07:51;;;;;;;43.90;25.15;;;;;;;6.01;69.19;98633.09;5095691;28;20032;-74
2023/04/21 03:10:18;;;;;;;46.42;25.00;;;;;;;6.01;68.96;98633.09;5095706;28;20101;-74
2023/04/21 03:12:44;;;;;;;45.33;24.02;;;;;;;6.03;69.03;98641.00;5095741;28;20521;-74
2023/04/21 03:15:10;;;;;;;43.30;24.52;;;;;;;6.02;69.32;98628.47;5095529;28;20020;-75
2023/04/21 03:17:35;;;;;;;45.28;23.80;;;;;;;6.02;69.29;98634.75;5093027;28;20020;-75
2023/04/21 03:20:04;;;;;;;45.22;25.00;;;;;;;6.04;69.53;98637.19;5095638;28;20051;-75
2023/04/21 03:22:29;;;;;;;41.13;22.95;;;;;;;6.08;69.06;98633.69;5097376;28;20028;-75
2023/04/21 03:24:54;;;;;;;47.72;27.15;;;;;;;6.09;69.46;98629.91;5099092;28;20106;-75
2023/04/21 03:27:20;;;;;;;52.45;26.38;;;;;;;6.10;69.83;98631.53;5099065;28;20020;-75
2023/04/21 03:29:45;;;;;;;42.75;24.27;;;;;;;6.14;69.63;98636.44;5094128;28;20024;-74
2023/04/21 03:32:10;;;;;;;50.03;25.60;;;;;;;6.13;69.52;98635.63;5094036;28;20074;-75
2023/04/21 03:34:36;;;;;;;49.42;25.02;;;;;;;6.09;70.05;98638.06;5094922;28;20073;-75
2023/04/21 03:37:01;;;;;;;44.97;23.92;;;;;;;6.09;69.24;98640.78;5095048;28;20107;-75
2023/04/21 03:39:26;;;;;;;47.10;25.90;;;;;;;6.09;69.63;98634.50;5094819;28;20055;-75
2023/04/21 03:41:52;;;;;;;48.38;25.42;;;;;;;6.07;69.35;98632.06;5094995;28;20111;-75
2023/04/21 03:44:17;;;;;;;46.35;24.63;;;;;;;6.06;69.65;98648.63;5095046;28;20464;-75
2023/04/21 03:46:43;;;;;;;50.25;24.73;;;;;;;6.07;69.41;98644.84;5095081;28;20040;-76
2023/04/21 03:49:08;;;;;;;48.78;24.85;;;;;;;6.04;69.39;98639.91;5090202;28;20169;-75
2023/04/21 03:51:33;;;;;;;49.05;24.23;;;;;;;6.05;69.53;98647.00;5094679;28;20530;-75
2023/04/21 03:53:59;;;;;;;47.05;24.60;;;;;;;6.02;69.33;98651.06;5094797;28;20078;-75
2023/04/21 03:56:24;;;;;;;46.13;24.52;;;;;;;6.04;69.44;98651.63;5094980;28;20039;-75
2023/04/21 03:58:49;;;;;;;55.40;28.65;;;;;;;6.04;69.54;98654.34;5094715;28;20499;-75
2023/04/21 04:01:15;;;;;;;60.00;28.95;;;;;;;6.06;69.72;98648.63;5094622;28;20032;-74
2023/04/21 04:03:40;;;;;;;44.58;25.85;;;;;;;6.05;70.05;98655.16;5094565;28;20114;-74
2023/04/21 04:06:06;;;;;;;50.58;27.48;;;;;;;6.05;69.44;98660.59;5094515;28;20028;-75
2023/04/21 04:08:31;;;;;;;55.85;28.23;;;;;;;6.07;69.81;98656.56;5094624;28;20382;-75
2023/04/21 04:10:57;;;;;;;49.03;25.85;;;;;;;6.10;70.15;98647.03;5094805;28;20390;-75
2023/04/21 04:13:23;;;;;;;43.40;26.40;;;;;;;6.14;70.29;98652.75;5094354;28;20078;-75
2023/04/21 04:15:49;;;;;;;52.53;26.05;;;;;;;6.14;69.69;98650.88;5094042;28;20035;-75
2023/04/21 04:18:14;;;;;;;43.25;25.45;;;;;;;6.18;69.89;98662.06;5094354;28;20028;-75
2023/04/21 04:20:39;;;;;;;46.72;24.25;;;;;;;6.22;70.21;98660.44;5093091;28;20082;-75
2023/04/21 04:23:05;;;;;;;44.53;25.15;;;;;;;6.23;70.12;98657.47;5094540;28;20028;-75
2023/04/21 04:25:30;;;;;;;43.30;23.88;;;;;;;6.27;69.86;98656.97;5094441;28;20377;-75
2023/04/21 04:27:56;;;;;;;43.65;23.23;;;;;;;6.31;70.46;98668.97;5094426;28;20035;-75
2023/04/21 04:30:22;;;;;;;39.97;23.45;;;;;;;6.34;70.28;98665.69;5094143;28;20056;-75
2023/04/21 04:32:48;;;;;;;38.45;22.80;;;;;;;6.37;70.52;98667.88;5093971;28;20038;-74
2023/04/21 04:35:14;;;;;;;43.95;22.58;;;;;;;6.41;70.30;98669.00;5094002;28;20119;-75
2023/04/21 04:37:40;;;;;;;41.78;22.65;;;;;;;6.44;70.52;98668.47;5094014;28;20398;-76
2023/04/21 04:40:09;;;;;;;41.00;22.90;;;;;;;6.49;70.61;98670.44;5093240;28;20058;-75
2023/04/21 04:42:35;;;;;;;38.17;23.00;;;;;;;6.53;70.41;98668.78;5093621;28;20055;-75
2023/04/21 04:45:02;;;;;;;37.63;22.75;;;;;;;6.55;70.49;98675.63;5093599;28;20035;-77
2023/04/21 04:47:27;;;;;;;38.83;23.83;;;;;;;6.57;70.29;98680.81;5093772;28;20089;-80
2023/04/21 04:49:53;;;;;;;40.47;24.65;;;;;;;6.60;70.31;98680.28;5093711;28;20486;-79
2023/04/21 04:52:18;;;;;;;41.80;23.17;;;;;;;6.65;70.74;98683.03;5093375;28;20553;-79
2023/04/21 04:54:44;;;;;;;44.63;25.05;;;;;;;6.68;70.75;98676.25;5093793;28;20028;-79
2023/04/21 04:57:09;;;;;;;48.92;25.95;;;;;;;6.74;70.78;98672.44;5093758;28;20397;-79
2023/04/21 04:59:35;;;;;;;45.75;26.23;;;;;;;6.80;71.27;98684.22;5093661;28;20051;-79
2023/04/21 05:02:01;;;;;;;44.67;26.65;;;;;;;6.88;70.91;98688.31;5093593;28;20119;-79
2023/04/21 05:04:27;;;;;;;44.45;26.58;;;;;;;6.94;71.36;98673.63;5092875;28;20032;-79
2023/04/21 05:06:52;;;;;;;40.53;26.00;;;;;;;7.00;70.88;98681.56;5093121;28;20069;-79
2023/04/21 05:09:18;;;;;;;44.65;26.48;;;;;;;7.06;70.87;98679.69;5091700;28;20422;-79
2023/04/21 05:11:43;;;;;;;49.60;25.98;;;;;;;7.10;71.26;98679.94;5093080;28;20035;-79
2023/04/21 05:14:08;;;;;;;41.88;25.52;;;;;;;7.19;70.92;98691.16;5093327;28;20490;-80
2023/04/21 05:16:34;;;;;;;44.50;25.98;;;;;;;7.25;71.35;98685.47;5093146;28;20054;-79
2023/04/21 05:19:03;;;;;;;43.08;25.58;;;;;;;7.30;71.17;98685.47;5093429;28;20106;-80
2023/04/21 05:21:28;;;;;;;40.40;24.30;;;;;;;7.36;71.38;98691.75;5093144;28;20047;-79
2023/04/21 05:23:55;;;;;;;39.42;24.52;;;;;;;7.41;71.36;98689.03;5093153;28;20470;-79
2023/04/21 05:26:21;;;;;;;36.63;23.17;;;;;;;7.45;71.08;98692.88;5092995;28;20389;-79
2023/04/21 05:28:46;;;;;;;37.80;22.13;;;;;;;7.53;71.11;98686.06;5091135;28;20024;-79
2023/04/21 05:31:12;;;;;;;36.15;22.73;;;;;;;7.61;71.10;98687.44;5092057;28;20028;-79
2023/04/21 05:33:37;;;;;;;42.90;23.80;;;;;;;7.69;70.99;98680.63;5092935;28;20105;-80
2023/04/21 05:36:09;;;;;;;41.13;23.85;;;;;;;7.75;71.48;98687.72;5092678;28;20016;-80
2023/04/21 05:38:35;;;;;;;38.85;24.58;;;;;;;7.83;70.97;98689.09;5093039;28;20036;-79
2023/04/21 05:41:01;;;;;;;34.00;20.45;;;;;;;7.90;70.97;98695.13;5092844;28;20469;-79
2023/04/21 05:43:27;;;;;;;37.00;20.48;;;;;;;7.96;71.18;98687.72;5092882;28;20027;-79
2023/04/21 05:45:52;;;;;;;38.35;20.55;;;;;;;8.00;70.83;98688.81;5090847;28;20031;-80
2023/04/21 05:48:18;;;;;;;34.85;21.20;;;;;;;8.05;70.64;98689.63;5088211;28;20035;-80
2023/04/21 05:50:43;;;;;;;33.58;21.35;;;;;;;8.12;71.23;98688.53;5102496;28;20036;-80
2023/04/21 05:53:09;;;;;;;35.95;22.08;;;;;;;8.19;70.26;98689.88;5089706;28;20039;-80
2023/04/21 05:55:35;;;;;;;38.90;22.60;;;;;;;8.26;70.99;98686.91;5090910;28;20055;-80
2023/04/21 05:58:00;;;;;;;39.15;23.17;;;;;;;8.33;70.98;98689.34;5080099;28;20102;-79
2023/04/21 06:00:26;;;;;;;36.03;23.35;;;;;;;8.40;70.70;98689.88;5079002;28;20097;-79
2023/04/21 06:02:51;;;;;;;40.53;24.30;;;;;;;8.49;70.54;98693.72;5089220;28;20127;-77
2023/04/21 06:05:17;;;;;;;39.60;24.20;;;;;;;8.56;70.66;98679.75;5089986;28;20444;-77
2023/04/21 06:07:42;;;;;;;40.33;24.17;;;;;;;8.64;70.79;98681.09;5087944;28;20036;-78
2023/04/21 06:10:08;;;;;;;41.03;22.98;;;;;;;8.71;71.24;98684.34;5088968;28;20039;-78
2023/04/21 06:12:33;;;;;;;38.50;23.10;;;;;;;8.77;70.66;98682.41;5091445;28;20035;-77
2023/04/21 06:14:59;;;;;;;40.15;23.88;;;;;;;8.84;71.12;98677.47;5091594;28;20417;-78
2023/04/21 06:17:24;;;;;;;37.97;23.35;;;;;;;8.93;70.64;98680.47;5086850;28;20024;-78
2023/04/21 06:19:52;;;;;;;40.10;22.40;;;;;;;9.00;70.97;98678.22;5090544;28;20027;-78
2023/04/21 06:22:26;;;;;;;39.15;22.30;;;;;;;9.07;70.79;98680.69;5090377;28;20027;-79
2023/04/21 06:24:52;;;;;;;40.65;23.77;;;;;;;9.16;70.79;98678.16;5091676;28;20060;-79
2023/04/21 06:27:17;;;;;;;37.40;23.17;;;;;;;9.23;70.34;98690.44;5090056;28;20070;-80
2023/04/21 06:29:42;;;;;;;42.85;24.90;;;;;;;9.30;70.29;98676.44;5089055;28;20020;-80
2023/04/21 06:32:09;;;;;;;38.33;23.38;;;;;;;9.41;70.18;98679.09;5092324;28;20077;-80
2023/04/21 06:34:34;;;;;;;40.50;23.35;;;;;;;9.51;70.64;98676.31;5090356;28;20374;-80
2023/04/21 06:37:00;;;;;;;40.95;25.55;;;;;;;9.58;70.38;98676.81;5087753;28;20036;-80
2023/04/21 06:39:26;;;;;;;31.40;19.92;;;;;;;9.67;69.74;98677.84;5093200;28;20048;-80
2023/04/21 06:41:51;;;;;;;35.20;21.25;;;;;;;9.75;70.20;98676.41;5096205;28;20032;-80
2023/04/21 06:44:17;;;;;;;32.22;19.83;;;;;;;9.85;69.73;98680.19;5095427;28;20408;-80
2023/04/21 06:46:42;;;;;;;30.50;18.70;;;;;;;9.92;69.73;98675.22;5096179;28;20028;-81
2023/04/21 06:49:08;;;;;;;31.05;18.48;;;;;;;10.04;69.45;98681.13;5095573;28;20553;-81
2023/04/21 06:51:34;;;;;;;30.90;19.27;;;;;;;10.12;69.34;98674.22;5095540;28;20401;-81
2023/04/21 06:54:00;;;;;;;33.40;20.00;;;;;;;10.21;69.17;98677.16;5095253;28;20494;-80
2023/04/21 06:56:26;;;;;;;28.95;17.13;;;;;;;10.31;69.46;98668.00;5095302;28;20048;-80
2023/04/21 06:58:52;;;;;;;26.10;17.02;;;;;;;10.41;68.79;98676.16;5094426;28;20371;-81
2023/04/21 07:01:17;;;;;;;25.45;17.13;;;;;;;10.51;69.87;98675.22;5094379;28;20031;-81
2023/04/21 07:03:43;;;;;;;25.60;16.13;;;;;;;10.59;69.19;98671.06;5095409;28;20101;-80
2023/04/21 07:06:09;;;;;;;32.22;15.98;;;;;;;10.66;68.57;98674.25;5094991;28;20016;-80
2023/04/21 07:08:35;;;;;;;28.33;16.20;;;;;;;10.71;68.62;98672.28;5091457;28;20031;-81
2023/04/21 07:11:00;;;;;;;45.35;30.88;;;;;;;10.81;68.60;98676.81;5095317;28;20432;-81
2023/04/21 07:13:26;;;;;;;33.70;22.13;;;;;;;10.91;68.81;98670.38;5094423;28;20496;-81
2023/04/21 07:15:51;;;;;;;34.30;20.67;;;;;;;11.01;68.30;98675.75;5094642;28;20447;-79
2023/04/21 07:18:16;;;;;;;27.52;16.40;;;;;;;11.15;68.15;98678.59;5095366;28;20044;-78
2023/04/21 07:20:42;;;;;;;29.67;16.90;;;;;;;11.29;68.50;98684.16;5090811;28;20020;-77
2023/04/21 07:23:07;;;;;;;29.10;16.55;;;;;;;11.42;68.24;98679.84;5091614;28;20048;-75
2023/04/21 07:25:33;;;;;;;25.80;15.55;;;;;;;11.57;68.67;98678.03;5089981;28;20446;-74
2023/04/21 07:27:58;;;;;;;27.75;16.48;;;;;;;11.69;68.38;98672.06;5094417;28;20016;-76
2023/04/21 07:30:23;;;;;;;30.33;15.95;;;;;;;11.73;67.27;98667.59;5093792;28;20039;-78
2023/04/21 07:32:49;;;;;;;31.17;17.70;;;;;;;11.82;67.49;98676.81;5093924;28;20039;-77
2023/04/21 07:35:14;;;;;;;29.77;16.30;;;;;;;11.90;67.58;98673.38;5095141;28;20560;-78
2023/04/21 07:37:40;;;;;;;30.30;16.65;;;;;;;11.99;67.11;98679.03;5093630;28;20031;-77
2023/04/21 07:40:08;;;;;;;25.08;16.75;;;;;;;12.08;66.99;98670.91;5095186;28;20040;-79
2023/04/21 07:42:34;;;;;;;28.20;16.35;;;;;;;12.22;66.39;98668.22;5091157;28;20504;-78
2023/04/21 07:45:01;;;;;;;25.50;15.85;;;;;;;12.36;66.50;98671.00;5093391;28;20048;-78
2023/04/21 07:47:27;;;;;;;28.00;16.15;;;;;;;12.46;66.11;98659.78;5093296;28;20047;-73
2023/04/21 07:49:52;;;;;;;26.55;15.73;;;;;;;12.56;66.07;98656.06;5093100;28;20024;-73
2023/04/21 07:52:18;;;;;;;25.98;15.52;;;;;;;12.64;66.02;98657.25;5090015;28;20047;-77
2023/04/21 07:54:43;;;;;;;24.63;14.77;;;;;;;12.70;65.65;98655.22;5092146;28;20486;-81
2023/04/21 07:57:09;;;;;;;28.08;14.98;;;;;;;12.75;65.33;98658.72;5094546;28;20583;-78
2023/04/21 07:59:34;;;;;;;25.95;14.20;;;;;;;12.80;65.15;98647.59;5089030;28;20051;-78
2023/04/21 08:02:00;;;;;;;26.17;15.60;;;;;;;12.88;64.92;98656.22;5090357;28;20035;-77
2023/04/21 08:04:26;;;;;;;24.95;15.30;;;;;;;12.95;64.91;98659.41;5088711;28;20064;-72
2023/04/21 08:06:51;;;;;;;28.67;14.60;;;;;;;13.01;64.68;98657.38;5087408;28;20036;-72
2023/04/21 08:09:17;;;;;;;27.55;14.30;;;;;;;13.09;64.53;98660.22;5091126;28;20099;-72
2023/04/21 08:11:42;;;;;;;24.00;14.48;;;;;;;13.20;64.43;98649.78;5081624;28;20131;-72
2023/04/21 08:14:11;;;;;;;22.67;12.85;;;;;;;13.29;64.45;98649.06;5093745;28;20422;-74
2023/04/21 08:16:40;;;;;;;23.30;13.25;;;;;;;13.38;64.16;98647.19;5090816;28;20106;-74
2023/04/21 08:19:06;;;;;;;;;;;;;;;13.44;63.64;98648.75;5092502;28;20101;-73
2023/04/21 08:21:32;;;;;;;22.20;12.73;;;;;;;13.50;63.29;98646.69;5092127;28;20111;-72
2023/04/21 08:23:58;;;;;;;21.65;11.73;;;;;;;13.59;63.44;98642.06;5092276;28;20114;-73
2023/04/21 08:26:24;;;;;;;19.25;12.35;;;;;;;13.68;63.42;98645.69;5092803;28;20083;-74
2023/04/21 08:28:50;;;;;;;21.63;12.23;;;;;;;13.76;62.96;98644.13;5093084;28;20032;-74
2023/04/21 08:31:16;;;;;;;16.73;9.55;;;;;;;13.89;62.76;98638.84;5094854;28;20032;-74
2023/04/21 08:33:42;;;;;;;13.48;6.85;;;;;;;13.98;62.42;98640.56;5073288;28;20121;-75
2023/04/21 08:36:07;;;;;;;14.27;7.82;;;;;;;14.11;62.24;98649.06;5089429;28;20019;-75
2023/04/21 08:38:34;;;;;;;12.27;7.50;;;;;;;14.24;61.81;98639.88;5091803;28;20048;-75
2023/04/21 08:40:59;;;;;;;13.43;8.80;;;;;;;14.36;61.46;98624.69;5091783;28;20401;-75
2023/04/21 08:43:25;;;;;;;12.90;7.55;;;;;;;14.47;60.22;98631.56;5092487;28;20024;-75
2023/04/21 08:45:53;;;;;;;14.60;8.27;;;;;;;14.55;58.65;98633.53;5092236;28;20031;-75
2023/04/21 08:48:21;;;;;;;13.68;7.20;;;;;;;14.62;59.02;98626.75;5091267;28;20020;-75
2023/04/21 08:50:48;;;;;;;10.63;6.20;;;;;;;14.70;57.49;98628.75;5091636;28;20065;-75
2023/04/21 08:53:15;;;;;;;11.43;6.72;;;;;;;14.78;57.04;98632.69;5093464;28;20035;-75
2023/04/21 08:55:41;;;;;;;9.30;6.05;;;;;;;14.99;53.97;98619.09;5093652;28;20111;-75
2023/04/21 08:58:08;;;;;;;10.60;6.15;;;;;;;15.23;54.96;98626.94;5093477;28;20024;-75
2023/04/21 09:00:34;;;;;;;12.90;6.78;;;;;;;15.37;54.59;98626.78;5093010;28;20061;-74
2023/04/21 09:03:01;;;;;;;11.15;6.65;;;;;;;15.45;55.29;98625.19;5087678;28;20654;-73
2023/04/21 09:05:31;;;;;;;11.10;6.82;;;;;;;15.55;55.36;98622.06;5092460;28;20043;-75
2023/04/21 09:08:17;;;;;;;10.75;6.07;;;;;;;15.71;52.99;98619.63;5091887;28;20020;-75
2023/04/21 09:10:48;;;;;;;10.25;6.15;;;;;;;15.85;53.56;98616.69;5092647;28;20149;-73
2023/04/21 09:13:14;;;;;;;9.45;6.07;;;;;;;15.94;51.96;98608.41;5093111;28;20116;-74
2023/04/21 09:15:44;;;;;;;11.18;6.57;;;;;;;15.95;51.53;98618.34;5092772;28;20032;-75
2023/04/21 09:18:21;;;;;;;11.57;7.28;;;;;;;16.01;51.87;98614.25;5092808;28;20032;-74
2023/04/21 09:20:52;;;;;;;8.30;5.57;;;;;;;16.12;52.12;98605.59;5092939;28;20028;-73
2023/04/21 09:23:20;;;;;;;9.95;6.10;;;;;;;16.22;51.25;98606.06;5092716;28;20038;-75
2023/04/21 09:25:45;;;;;;;9.90;6.47;;;;;;;16.25;51.13;98610.09;5092946;28;20427;-74
2023/04/21 09:28:13;;;;;;;9.45;6.57;;;;;;;16.34;51.05;98605.38;5092696;28;20024;-75
2023/04/21 09:30:41;;;;;;;6.82;5.40;;;;;;;16.40;50.16;98603.22;5092705;28;20050;-75
2023/04/21 09:33:14;;;;;;;9.35;5.50;;;;;;;16.44;50.37;98603.38;5092365;28;20081;-73
2023/04/21 09:35:40;;;;;;;8.07;5.63;;;;;;;16.47;49.66;98605.50;5092414;28;20115;-74
2023/04/21 09:38:10;;;;;;;9.65;6.40;;;;;;;16.49;48.61;98608.75;5092313;28;20431;-74
2023/04/21 09:40:36;;;;;;;8.38;6.35;;;;;;;16.53;48.80;98601.38;5092913;28;20385;-74
2023/04/21 09:43:01;;;;;;;9.65;5.63;;;;;;;16.55;48.23;98606.59;5092648;28;20032;-75
2023/04/21 09:45:27;;;;;;;7.65;5.10;;;;;;;16.58;47.87;98606.72;5092509;28;20024;-75
2023/04/21 09:47:59;;;;;;;8.27;6.10;;;;;;;16.61;48.52;98589.44;5091929;28;20389;-75
2023/04/21 09:50:25;;;;;;;8.65;6.15;;;;;;;16.70;48.52;98594.97;5092505;28;20020;-75
2023/04/21 09:52:52;;;;;;;9.85;5.75;;;;;;;16.75;46.97;98588.41;5092474;28;20111;-75
2023/04/21 09:55:21;;;;;;;7.72;5.32;;;;;;;16.83;47.74;98598.63;5092139;28;20031;-75
2023/04/21 09:57:49;;;;;;;9.00;5.72;;;;;;;16.92;46.82;98585.50;5091803;28;20023;-75
2023/04/21 10:00:17;;;;;;;8.57;6.03;;;;;;;17.00;46.86;98594.97;5091496;28;20517;-75
2023/04/21 10:02:48;;;;;;;8.90;5.75;;;;;;;17.08;47.05;98588.56;5090527;28;20440;-74
2023/04/21 10:05:14;;;;;;;11.73;5.90;;;;;;;17.18;47.22;98583.75;5087568;28;20031;-75
2023/04/21 10:07:40;;;;;;;15.15;6.68;;;;;;;17.21;42.73;98591.38;5091833;28;20092;-75
2023/04/21 10:10:07;;;;;;;10.07;6.75;;;;;;;17.15;44.98;98598.28;5091859;28;20084;-75
2023/04/21 10:12:34;;;;;;;10.43;6.97;;;;;;;17.11;43.89;98593.44;5091673;28;20056;-75
2023/04/21 10:15:04;;;;;;;10.10;6.22;;;;;;;17.11;44.49;98587.06;5091308;28;20075;-74
2023/04/21 10:17:35;;;;;;;11.18;6.95;;;;;;;17.22;43.88;98579.97;5091596;28;20477;-73
2023/04/21 10:20:05;;;;;;;12.60;6.10;;;;;;;17.37;44.70;98575.78;5093233;28;20539;-74
2023/04/21 10:22:34;;;;;;;8.13;6.00;;;;;;;17.54;43.93;98576.78;5093107;28;20054;-74
2023/04/21 10:25:02;;;;;;;12.60;6.67;;;;;;;17.65;43.80;98572.44;5095351;28;20055;-75
2023/04/21 10:27:31;;;;;;;10.77;6.60;;;;;;;17.80;44.85;98573.75;5094246;28;20266;-74
2023/04/21 10:29:57;;;;;;;13.00;6.32;;;;;;;17.93;43.83;98569.03;5092773;28;20027;-74
2023/04/21 10:32:40;;;;;;;10.13;6.40;;;;;;;18.04;43.51;98569.47;5091654;28;20115;-75
2023/04/21 10:35:13;;;;;;;11.48;6.90;;;;;;;18.17;40.20;98563.91;5091520;28;20020;-75
2023/04/21 10:37:41;;;;;;;8.40;7.07;;;;;;;18.22;43.12;98561.75;5091272;28;20020;-74
2023/04/21 10:40:29;;;;;;;8.10;6.57;;;;;;;18.31;44.32;98561.63;5090218;28;20137;-75
2023/04/21 10:42:55;;;;;;;15.88;6.72;;;;;;;18.39;42.67;98562.69;5090484;28;20043;-75
2023/04/21 10:45:24;;;;;;;10.02;7.00;;;;;;;18.39;42.73;98548.78;5091838;28;20024;-75
2023/04/21 10:47:51;;;;;;;9.75;6.40;;;;;;;18.34;42.72;98554.59;5092173;28;20101;-75
2023/04/21 10:50:19;;;;;;;9.02;6.82;;;;;;;18.25;40.68;98563.84;5091884;28;20024;-74
2023/04/21 10:53:16;;;;;;;11.35;6.38;;;;;;;18.17;42.27;98556.41;5091982;28;20023;-74
2023/04/21 10:55:47;;;;;;;8.25;6.00;;;;;;;18.20;42.01;98560.47;5046927;28;20086;-72
2023/04/21 10:58:15;;;;;;;8.90;6.32;;;;;;;18.23;42.78;98551.44;5091944;28;20044;-73
2023/04/21 11:00:41;;;;;;;11.57;6.45;;;;;;;18.36;43.12;98549.47;5091853;28;20031;-73
2023/04/21 11:03:07;;;;;;;7.70;5.85;;;;;;;18.49;42.51;98544.75;5091382;28;20382;-74
2023/04/21 11:05:39;;;;;;;11.38;6.63;;;;;;;18.64;42.14;98541.28;5091293;28;20020;-74
2023/04/21 11:08:06;;;;;;;8.05;5.53;;;;;;;18.83;42.37;98537.09;5091476;28;20100;-73
2023/04/21 11:10:51;;;;;;;7.63;5.80;;;;;;;18.99;42.35;98531.66;5090955;28;20073;-73
2023/04/21 11:13:20;;;;;;;11.48;5.97;;;;;;;19.12;39.62;98537.97;5091220;28;20121;-73
2023/04/21 11:16:00;;;;;;;7.90;5.47;;;;;;;19.16;42.09;98533.34;5091023;28;20028;-73
2023/04/21 11:18:35;;;;;;;9.75;5.28;;;;;;;19.19;41.91;98529.84;5091180;28;20020;-73
2023/04/21 11:21:09;;;;;;;7.32;6.03;;;;;;;19.13;41.12;98532.09;5090828;28;20493;-73
2023/04/21 11:23:39;;;;;;;7.85;5.90;;;;;;;19.07;41.57;98532.66;5090810;28;20024;-73